Time;durP1;ratioP1;P1;durP2;ratioP2;P2;SDS_P1;SDS_P2;PMS_P1;PMS_P2;Temp;Humidity;BMP_temperature;BMP_pressure;BME280_temperature;BME280_humidity;BME280_pressure;Samples;Min_cycle;Max_cycle;Signal;HPM_P1;HPM_P2
2021/06/15 00:01:50;;;;;;;9.93;6.30;;;18.10;99.90;;;;;;5078361;28;20205;-69
2021/06/15 00:04:17;;;;;;;9.02;6.18;;;18.00;99.90;;;;;;5081890;28;20198;-69
2021/06/15 00:06:44;;;;;;;9.18;6.03;;;18.00;99.90;;;;;;5085109;28;20247;-69
2021/06/15 00:09:11;;;;;;;10.95;6.20;;;17.90;99.90;;;;;;5082943;28;20198;-69
2021/06/15 00:11:38;;;;;;;12.32;6.45;;;17.90;99.90;;;;;;5084106;28;20272;-69
2021/06/15 00:14:06;;;;;;;8.98;6.43;;;17.90;99.90;;;;;;5076622;28;20256;-69
2021/06/15 00:16:33;;;;;;;10.05;6.47;;;17.90;99.90;;;;;;5082786;28;20198;-69
2021/06/15 00:19:01;;;;;;;9.23;6.38;;;17.80;99.90;;;;;;5088667;28;20603;-69
2021/06/15 00:21:28;;;;;;;9.68;5.65;;;17.60;99.90;;;;;;5084055;28;20193;-69
2021/06/15 00:23:55;;;;;;;10.45;5.93;;;17.40;99.90;;;;;;5082324;28;20617;-68
2021/06/15 00:26:22;;;;;;;8.60;6.00;;;17.40;99.90;;;;;;5077870;28;20314;-68
2021/06/15 00:28:49;;;;;;;12.48;6.70;;;17.30;99.90;;;;;;5080280;28;20198;-73
2021/06/15 00:31:16;;;;;;;11.10;6.57;;;17.20;99.90;;;;;;5085810;28;20239;-69
2021/06/15 00:33:43;;;;;;;8.20;6.22;;;17.10;99.90;;;;;;5086581;28;20441;-68
2021/06/15 00:36:12;;;;;;;11.88;6.82;;;17.10;99.90;;;;;;5083692;28;20202;-73
2021/06/15 00:38:39;;;;;;;10.38;6.55;;;16.80;99.90;;;;;;5082950;28;20656;-73
2021/06/15 00:41:06;;;;;;;9.95;6.60;;;17.00;99.90;;;;;;5082079;28;20595;-69
2021/06/15 00:43:33;;;;;;;12.27;6.57;;;17.10;99.90;;;;;;5078861;28;20198;-69
2021/06/15 00:46:00;;;;;;;11.60;6.65;;;16.90;99.90;;;;;;5080551;28;20201;-69
2021/06/15 00:48:29;;;;;;;12.73;7.60;;;16.70;99.90;;;;;;5083251;28;20194;-69
2021/06/15 00:50:56;;;;;;;11.93;7.40;;;16.60;99.90;;;;;;5086210;28;20209;-69
2021/06/15 00:53:25;;;;;;;11.88;8.05;;;16.60;99.90;;;;;;5084479;28;20276;-68
2021/06/15 00:55:53;;;;;;;14.98;7.63;;;16.50;99.90;;;;;;5073334;28;20624;-74
2021/06/15 00:58:21;;;;;;;14.65;7.55;;;16.50;99.90;;;;;;5073773;28;20194;-69
2021/06/15 01:00:48;;;;;;;13.40;7.63;;;16.50;99.90;;;;;;5073679;28;20660;-69
2021/06/15 01:03:17;;;;;;;12.98;8.05;;;16.50;99.90;;;;;;5074487;28;20199;-74
2021/06/15 01:05:44;;;;;;;14.52;8.23;;;16.40;99.90;;;;;;5084160;28;20264;-74
2021/06/15 01:08:21;;;;;;;13.25;8.02;;;16.30;99.90;;;;;;5077926;28;20229;-74
2021/06/15 01:11:02;;;;;;;13.73;8.27;;;16.20;99.90;;;;;;5078604;28;20205;-74
2021/06/15 01:13:48;;;;;;;13.45;8.02;;;16.20;99.90;;;;;;5081709;28;20260;-73
2021/06/15 01:16:23;;;;;;;16.00;8.25;;;16.10;99.90;;;;;;5088136;28;20229;-73
2021/06/15 01:18:53;;;;;;;15.38;8.63;;;16.20;99.90;;;;;;5080197;28;20952;-73
2021/06/15 01:21:22;;;;;;;12.77;8.80;;;16.30;99.90;;;;;;5070214;28;20490;-73
2021/06/15 01:24:22;;;;;;;13.18;8.27;;;16.20;99.90;;;;;;5079304;28;20716;-73
2021/06/15 01:27:24;;;;;;;15.05;8.32;;;16.20;99.90;;;;;;5082055;28;20224;-73
2021/06/15 01:29:57;;;;;;;14.07;8.63;;;16.20;99.90;;;;;;5074913;28;20256;-69
2021/06/15 01:32:28;;;;;;;19.27;9.82;;;16.30;99.90;;;;;;5087552;28;20287;-69
2021/06/15 01:34:57;;;;;;;14.40;9.05;;;16.20;99.90;;;;;;5069657;28;20644;-69
2021/06/15 01:37:27;;;;;;;14.75;8.95;;;16.10;99.90;;;;;;5089163;28;20267;-69
2021/06/15 01:39:57;;;;;;;14.13;9.57;;;16.10;99.90;;;;;;5072821;28;20207;-69
2021/06/15 01:42:29;;;;;;;15.35;9.80;;;16.20;99.90;;;;;;5082016;28;20208;-69
2021/06/15 01:45:03;;;;;;;16.23;10.57;;;16.20;99.90;;;;;;5075088;28;20202;-69
2021/06/15 01:47:30;;;;;;;15.70;10.27;;;16.30;99.90;;;;;;5086831;28;20631;-69
2021/06/15 01:49:59;;;;;;;14.45;9.35;;;16.40;99.90;;;;;;5071649;28;20297;-69
2021/06/15 01:52:31;;;;;;;14.00;9.68;;;16.40;99.90;;;;;;5084190;28;20230;-69
2021/06/15 01:54:59;;;;;;;15.93;9.70;;;16.10;99.90;;;;;;5071919;28;20206;-69
2021/06/15 01:57:26;;;;;;;15.10;9.35;;;16.10;99.90;;;;;;5080747;28;20203;-69
2021/06/15 01:59:59;;;;;;;14.07;9.88;;;16.10;99.90;;;;;;5079741;28;20199;-69
2021/06/15 02:02:27;;;;;;;18.35;10.27;;;16.30;99.90;;;;;;5085891;28;20194;-69
2021/06/15 02:04:56;;;;;;;17.27;10.68;;;16.30;99.90;;;;;;5078706;28;20692;-69
2021/06/15 02:07:26;;;;;;;15.88;9.98;;;16.40;99.90;;;;;;5088575;28;20212;-69
2021/06/15 02:09:57;;;;;;;16.85;9.60;;;16.50;99.90;;;;;;5086701;28;20248;-69
2021/06/15 02:12:28;;;;;;;15.93;10.73;;;16.30;99.90;;;;;;5082142;28;20232;-69
2021/06/15 02:14:58;;;;;;;15.95;10.50;;;16.30;99.90;;;;;;5082352;28;20551;-69
2021/06/15 02:17:27;;;;;;;17.35;10.80;;;16.20;99.90;;;;;;5077848;28;20203;-69
2021/06/15 02:19:54;;;;;;;13.80;10.07;;;16.20;99.90;;;;;;5081877;28;20193;-69
2021/06/15 02:22:23;;;;;;;15.27;10.27;;;16.20;99.90;;;;;;5073635;28;20202;-69
2021/06/15 02:24:56;;;;;;;15.90;10.63;;;16.30;99.90;;;;;;5079560;28;20202;-69
2021/06/15 02:27:24;;;;;;;15.00;10.15;;;16.30;99.90;;;;;;5074820;28;20206;-69
2021/06/15 02:29:53;;;;;;;16.17;9.60;;;16.20;99.90;;;;;;5078014;28;20198;-69
2021/06/15 02:32:28;;;;;;;16.50;10.82;;;16.20;99.90;;;;;;5077652;28;20271;-69
2021/06/15 02:34:59;;;;;;;16.58;9.98;;;16.00;99.90;;;;;;5074107;28;20276;-69
2021/06/15 02:37:30;;;;;;;14.40;10.48;;;16.10;99.90;;;;;;5077222;28;20201;-74
2021/06/15 02:39:58;;;;;;;18.42;11.07;;;16.00;99.90;;;;;;5079960;28;20288;-69
2021/06/15 02:42:26;;;;;;;16.92;11.02;;;16.00;99.90;;;;;;5087399;28;20204;-74
2021/06/15 02:44:56;;;;;;;18.90;11.43;;;15.80;99.90;;;;;;5084290;28;20198;-69
2021/06/15 02:47:25;;;;;;;21.57;11.17;;;15.90;99.90;;;;;;5081814;28;20202;-69
2021/06/15 02:49:56;;;;;;;19.85;11.82;;;15.80;99.90;;;;;;5079520;28;20220;-69
2021/06/15 02:52:33;;;;;;;18.53;11.87;;;15.80;99.90;;;;;;5085726;28;20223;-69
2021/06/15 02:55:03;;;;;;;18.58;12.35;;;15.80;99.90;;;;;;5072775;28;20198;-69
2021/06/15 02:57:30;;;;;;;17.55;11.02;;;15.70;99.90;;;;;;5084814;28;20211;-68
2021/06/15 02:59:58;;;;;;;19.58;11.88;;;15.80;99.90;;;;;;5077413;28;20207;-69
2021/06/15 03:02:27;;;;;;;19.02;12.38;;;15.80;99.90;;;;;;5074732;28;20671;-69
2021/06/15 03:04:54;;;;;;;19.23;12.43;;;15.90;99.90;;;;;;5082035;28;20570;-69
2021/06/15 03:07:21;;;;;;;20.60;12.63;;;15.90;99.90;;;;;;5073926;28;20198;-69
2021/06/15 03:09:48;;;;;;;18.07;12.70;;;15.90;99.90;;;;;;5084810;28;20690;-69
2021/06/15 03:12:18;;;;;;;19.48;12.40;;;16.00;99.90;;;;;;5082823;28;20202;-69
2021/06/15 03:14:49;;;;;;;19.17;13.43;;;15.90;99.90;;;;;;5081351;28;20193;-69
2021/06/15 03:17:17;;;;;;;17.07;12.37;;;15.90;99.90;;;;;;5083094;28;20217;-69
2021/06/15 03:19:52;;;;;;;18.85;13.25;;;15.90;99.90;;;;;;5080666;28;20198;-69
2021/06/15 03:22:22;;;;;;;17.80;12.27;;;15.90;99.90;;;;;;5076593;28;20197;-69
2021/06/15 03:24:55;;;;;;;23.00;13.27;;;15.90;99.90;;;;;;5083482;28;20202;-69
2021/06/15 03:27:31;;;;;;;19.77;13.60;;;15.80;99.90;;;;;;5085386;28;20652;-69
2021/06/15 03:29:59;;;;;;;20.27;14.03;;;15.90;99.90;;;;;;5082381;28;20197;-69
2021/06/15 03:32:27;;;;;;;21.67;12.73;;;15.90;99.90;;;;;;5079924;28;20687;-69
2021/06/15 03:34:57;;;;;;;18.17;12.80;;;16.00;99.90;;;;;;5085032;28;20219;-69
2021/06/15 03:37:27;;;;;;;19.77;12.30;;;15.90;99.90;;;;;;5084165;28;20210;-69
2021/06/15 03:39:58;;;;;;;20.83;13.40;;;16.00;99.90;;;;;;5089661;28;20237;-69
2021/06/15 03:42:28;;;;;;;23.13;15.70;;;16.00;99.90;;;;;;5083538;28;20289;-69
2021/06/15 03:44:59;;;;;;;19.75;13.40;;;16.00;99.90;;;;;;5081862;28;20205;-70
2021/06/15 03:47:27;;;;;;;20.92;13.50;;;15.90;99.90;;;;;;5073255;28;20205;-70
2021/06/15 03:49:56;;;;;;;19.80;13.80;;;16.00;99.90;;;;;;5070687;28;20199;-69
2021/06/15 03:52:28;;;;;;;21.55;13.70;;;16.00;99.90;;;;;;5052027;28;20237;-70
2021/06/15 03:54:57;;;;;;;19.73;13.63;;;16.10;99.90;;;;;;5081353;28;20190;-70
2021/06/15 03:57:25;;;;;;;19.77;13.98;;;16.10;99.90;;;;;;5078804;28;20681;-70
2021/06/15 03:59:53;;;;;;;21.13;14.00;;;16.20;99.90;;;;;;5073610;28;20206;-70
2021/06/15 04:02:21;;;;;;;21.65;14.43;;;16.20;99.90;;;;;;5078690;28;20207;-70
2021/06/15 04:04:49;;;;;;;24.20;13.45;;;16.20;99.90;;;;;;5074746;28;20561;-70
2021/06/15 04:07:21;;;;;;;21.10;14.33;;;16.10;99.90;;;;;;5073518;28;20301;-70
2021/06/15 04:09:50;;;;;;;26.40;15.38;;;16.20;99.90;;;;;;5079857;28;20209;-70
2021/06/15 04:12:19;;;;;;;21.20;13.77;;;16.20;99.90;;;;;;5087159;28;20205;-70
2021/06/15 04:14:47;;;;;;;23.08;15.75;;;16.50;99.90;;;;;;5083559;28;20198;-70
2021/06/15 04:17:17;;;;;;;23.83;14.95;;;16.70;99.90;;;;;;5088361;28;20205;-70
2021/06/15 04:19:46;;;;;;;23.27;14.93;;;16.80;99.90;;;;;;5088148;28;20205;-70
2021/06/15 04:22:15;;;;;;;23.15;15.30;;;16.90;99.90;;;;;;5087728;28;20540;-70
2021/06/15 04:24:47;;;;;;;24.77;16.08;;;16.70;99.90;;;;;;5086920;28;20190;-70
2021/06/15 04:27:14;;;;;;;25.13;15.38;;;16.50;99.90;;;;;;5089049;28;20208;-70
2021/06/15 04:29:44;;;;;;;25.17;17.70;;;16.50;99.90;;;;;;5079494;28;20233;-70
2021/06/15 04:32:12;;;;;;;23.55;15.35;;;16.40;99.90;;;;;;5086029;28;20202;-71
2021/06/15 04:34:42;;;;;;;26.77;17.20;;;16.50;99.90;;;;;;5088110;28;20222;-70
2021/06/15 04:37:11;;;;;;;27.00;16.17;;;16.50;99.90;;;;;;5090392;28;20210;-71
2021/06/15 04:39:43;;;;;;;26.17;16.08;;;16.90;99.90;;;;;;5088778;28;20202;-71
2021/06/15 04:42:16;;;;;;;22.65;16.73;;;16.60;99.90;;;;;;5080712;28;20206;-71
2021/06/15 04:44:46;;;;;;;23.08;16.10;;;16.70;99.90;;;;;;5079032;28;20210;-71
2021/06/15 04:47:15;;;;;;;26.48;18.20;;;16.80;99.90;;;;;;5091842;28;20198;-70
2021/06/15 04:49:47;;;;;;;27.98;17.13;;;16.90;99.90;;;;;;5091951;28;20644;-71
2021/06/15 04:52:18;;;;;;;26.98;16.27;;;16.90;99.90;;;;;;5081721;28;20309;-71
2021/06/15 04:54:48;;;;;;;25.02;16.88;;;17.00;99.90;;;;;;5089831;28;20227;-71
2021/06/15 04:57:21;;;;;;;25.83;18.27;;;17.20;99.90;;;;;;5074621;28;20256;-70
2021/06/15 04:59:52;;;;;;;25.65;17.77;;;17.30;99.90;;;;;;5090744;28;20194;-71
2021/06/15 05:02:20;;;;;;;26.60;18.02;;;17.40;99.90;;;;;;5075575;28;20233;-71
2021/06/15 05:04:49;;;;;;;25.10;17.15;;;17.50;99.90;;;;;;5072221;28;20247;-70
2021/06/15 05:07:18;;;;;;;28.17;17.73;;;17.30;99.90;;;;;;5079147;28;20206;-71
2021/06/15 05:09:45;;;;;;;26.10;18.25;;;17.40;99.90;;;;;;5082863;28;20205;-71
2021/06/15 05:12:14;;;;;;;24.60;17.98;;;17.30;99.90;;;;;;5089813;28;20216;-71
2021/06/15 05:14:44;;;;;;;25.15;18.25;;;17.50;99.90;;;;;;5085960;28;20223;-71
2021/06/15 05:17:12;;;;;;;26.10;17.35;;;17.30;99.90;;;;;;5086903;28;20659;-71
2021/06/15 05:19:40;;;;;;;27.85;18.85;;;17.30;99.90;;;;;;5077043;28;20295;-71
2021/06/15 05:22:12;;;;;;;25.67;17.98;;;17.60;99.90;;;;;;5083109;28;20386;-70
2021/06/15 05:24:50;;;;;;;27.77;18.45;;;18.00;99.90;;;;;;5085728;28;20190;-71
2021/06/15 05:27:18;;;;;;;26.50;17.30;;;18.10;99.90;;;;;;5079602;28;20198;-70
2021/06/15 05:29:46;;;;;;;28.17;19.15;;;18.00;99.90;;;;;;5075540;28;20215;-71
2021/06/15 05:32:13;;;;;;;26.10;18.00;;;18.00;99.90;;;;;;5092393;28;20284;-71
2021/06/15 05:34:41;;;;;;;27.33;17.65;;;17.90;99.90;;;;;;5080241;28;20223;-71
2021/06/15 05:37:08;;;;;;;25.40;17.13;;;18.20;99.90;;;;;;5084044;28;20216;-71
2021/06/15 05:39:36;;;;;;;27.65;18.48;;;18.50;99.90;;;;;;5071286;28;20208;-70
2021/06/15 05:42:04;;;;;;;27.30;17.95;;;18.60;99.90;;;;;;5073471;28;20194;-71
2021/06/15 05:44:31;;;;;;;28.08;18.17;;;19.20;99.90;;;;;;5071307;28;20205;-71
2021/06/15 05:46:59;;;;;;;25.73;16.80;;;19.10;99.90;;;;;;5072174;28;20202;-70
2021/06/15 05:49:26;;;;;;;23.70;17.48;;;18.90;99.90;;;;;;5081062;28;20282;-71
2021/06/15 05:51:58;;;;;;;24.27;16.30;;;18.80;99.90;;;;;;5077312;28;20216;-71
2021/06/15 05:54:26;;;;;;;27.45;16.50;;;19.00;99.90;;;;;;5080001;28;20313;-70
2021/06/15 05:56:52;;;;;;;23.90;17.08;;;18.90;99.90;;;;;;5086944;28;20553;-71
2021/06/15 05:59:19;;;;;;;23.63;16.73;;;18.90;99.90;;;;;;5092660;28;20573;-70
2021/06/15 06:01:46;;;;;;;27.60;16.73;;;18.50;99.90;;;;;;5081169;28;20481;-70
2021/06/15 06:04:17;;;;;;;25.13;17.95;;;18.40;99.90;;;;;;5073040;28;20206;-71
2021/06/15 06:09:28;;;;;;;23.50;17.48;;;18.40;99.90;;;;;;5070812;28;20576;-71
2021/06/15 06:11:55;;;;;;;27.92;17.27;;;18.40;99.90;;;;;;5071026;28;20583;-71
2021/06/15 06:14:22;;;;;;;28.15;17.73;;;18.30;99.90;;;;;;5071005;28;20207;-71
2021/06/15 06:16:49;;;;;;;26.20;17.27;;;18.30;99.90;;;;;;5081551;28;20580;-71
2021/06/15 06:19:17;;;;;;;26.30;17.27;;;18.50;99.90;;;;;;5072509;28;20213;-71
2021/06/15 06:21:45;;;;;;;25.20;17.55;;;18.30;99.90;;;;;;5071087;28;20202;-71
2021/06/15 06:24:12;;;;;;;25.38;17.73;;;18.50;99.90;;;;;;5075313;28;20198;-71
2021/06/15 06:26:39;;;;;;;24.27;17.15;;;18.60;99.90;;;;;;5081222;28;20265;-70
2021/06/15 06:29:07;;;;;;;28.40;17.75;;;18.70;99.90;;;;;;5077701;28;20224;-71
2021/06/15 06:31:35;;;;;;;27.35;18.15;;;18.80;99.90;;;;;;5083550;28;20194;-71
2021/06/15 06:34:01;;;;;;;26.55;17.77;;;18.60;99.90;;;;;;5074791;28;20695;-70
2021/06/15 06:36:30;;;;;;;24.58;18.13;;;18.70;99.90;;;;;;5086278;28;20203;-70
2021/06/15 06:38:57;;;;;;;28.95;18.98;;;18.90;99.90;;;;;;5071134;28;20209;-70
2021/06/15 06:41:24;;;;;;;25.63;16.58;;;18.80;99.90;;;;;;5079493;28;20222;-70
2021/06/15 06:43:51;;;;;;;22.77;16.73;;;18.70;99.90;;;;;;5080431;28;20302;-70
2021/06/15 06:46:18;;;;;;;26.40;18.48;;;18.90;99.90;;;;;;5081004;28;20204;-70
2021/06/15 06:48:44;;;;;;;26.38;17.88;;;19.10;99.90;;;;;;5073074;28;20283;-70
2021/06/15 06:51:11;;;;;;;24.80;17.58;;;18.90;99.90;;;;;;5077464;28;20209;-70
2021/06/15 06:53:40;;;;;;;25.05;17.15;;;18.90;99.90;;;;;;5070872;28;20229;-70
2021/06/15 06:56:07;;;;;;;25.33;17.48;;;19.00;99.90;;;;;;5071198;28;20194;-70
2021/06/15 06:58:36;;;;;;;22.58;15.60;;;18.80;99.90;;;;;;5078950;28;20280;-70
2021/06/15 07:01:04;;;;;;;22.65;15.77;;;18.80;99.90;;;;;;5078279;28;20212;-70
2021/06/15 07:03:31;;;;;;;25.05;16.52;;;18.90;99.90;;;;;;5090713;28;20577;-70
2021/06/15 07:05:58;;;;;;;23.33;15.70;;;18.90;99.90;;;;;;5079310;28;20474;-70
2021/06/15 07:08:25;;;;;;;24.63;16.02;;;19.10;99.90;;;;;;5073108;28;20244;-76
2021/06/15 07:10:54;;;;;;;23.45;16.10;;;19.00;99.90;;;;;;5080063;28;20205;-76
2021/06/15 07:13:21;;;;;;;20.83;14.20;;;18.70;99.90;;;;;;5072444;28;20243;-75
2021/06/15 07:15:48;;;;;;;22.40;15.50;;;18.90;99.90;;;;;;5072958;28;20194;-75
2021/06/15 07:18:15;;;;;;;22.23;15.68;;;18.80;99.90;;;;;;5071759;28;20513;-77
2021/06/15 07:20:42;;;;;;;23.83;16.90;;;18.90;99.90;;;;;;5082049;28;20206;-76
2021/06/15 07:23:09;;;;;;;22.98;14.82;;;18.80;99.90;;;;;;5086903;28;20197;-76
2021/06/15 07:25:36;;;;;;;22.50;16.00;;;18.90;99.90;;;;;;5079404;28;20202;-76
2021/06/15 07:28:05;;;;;;;22.05;16.33;;;18.80;99.90;;;;;;5071880;28;20649;-76
2021/06/15 07:30:32;;;;;;;19.88;15.23;;;18.50;99.90;;;;;;5070776;28;20427;-76
2021/06/15 07:32:59;;;;;;;25.35;14.90;;;18.60;99.90;;;;;;5081224;28;20205;-76
2021/06/15 07:35:28;;;;;;;20.98;15.35;;;18.70;99.90;;;;;;5070259;28;20252;-77
2021/06/15 07:37:56;;;;;;;22.05;14.35;;;18.90;99.90;;;;;;5070192;28;20213;-76
2021/06/15 07:40:24;;;;;;;21.75;14.82;;;18.90;99.90;;;;;;5069339;28;20202;-76
2021/06/15 07:42:51;;;;;;;21.00;13.38;;;18.80;99.90;;;;;;5074119;28;20206;-70
2021/06/15 07:45:20;;;;;;;20.88;13.57;;;19.00;99.90;;;;;;5069602;28;20198;-70
2021/06/15 07:47:47;;;;;;;17.35;12.63;;;19.10;99.90;;;;;;5084487;28;20651;-70
2021/06/15 07:50:16;;;;;;;18.42;13.38;;;19.20;99.90;;;;;;5085691;28;20208;-71
2021/06/15 07:52:43;;;;;;;20.08;13.63;;;19.30;99.90;;;;;;5070290;28;20226;-70
2021/06/15 07:55:11;;;;;;;16.77;12.82;;;19.30;99.90;;;;;;5077668;28;20282;-70
2021/06/15 07:57:38;;;;;;;18.50;13.05;;;19.20;99.90;;;;;;5075886;28;20447;-70
2021/06/15 08:00:09;;;;;;;21.00;13.80;;;19.10;99.90;;;;;;5078944;28;20227;-70
2021/06/15 08:02:38;;;;;;;19.98;14.68;;;19.20;99.90;;;;;;5082281;28;20292;-70
2021/06/15 08:05:06;;;;;;;19.92;13.63;;;19.30;99.90;;;;;;5087004;28;20698;-70
2021/06/15 08:07:33;;;;;;;19.05;14.38;;;19.40;99.90;;;;;;5083065;28;20229;-70
2021/06/15 08:10:00;;;;;;;17.90;12.07;;;19.50;99.90;;;;;;5087442;28;20254;-70
2021/06/15 08:12:27;;;;;;;17.73;12.77;;;19.50;99.90;;;;;;5080730;28;20194;-75
2021/06/15 08:14:54;;;;;;;19.52;13.00;;;19.30;99.90;;;;;;5086511;28;20266;-76
2021/06/15 08:17:21;;;;;;;15.95;11.23;;;19.50;99.90;;;;;;5083926;28;20201;-76
2021/06/15 08:19:49;;;;;;;18.13;11.95;;;19.60;99.90;;;;;;5089223;28;20202;-75
2021/06/15 08:22:16;;;;;;;20.23;11.88;;;19.20;99.90;;;;;;5081900;28;20560;-75
2021/06/15 08:24:43;;;;;;;16.63;10.95;;;19.30;99.90;;;;;;5077275;28;20618;-76
2021/06/15 08:27:10;;;;;;;17.00;10.60;;;19.30;99.90;;;;;;5085319;28;20263;-75
2021/06/15 08:29:37;;;;;;;17.35;11.20;;;19.60;99.90;;;;;;5082693;28;20197;-75
2021/06/15 08:32:05;;;;;;;23.95;10.85;;;19.30;99.90;;;;;;5085408;28;20197;-76
2021/06/15 08:34:34;;;;;;;21.88;11.50;;;19.20;99.90;;;;;;5085499;28;20217;-75
2021/06/15 08:37:03;;;;;;;16.98;10.68;;;19.40;99.90;;;;;;5081625;28;20279;-76
2021/06/15 08:39:30;;;;;;;16.15;10.35;;;19.60;99.90;;;;;;5083465;28;20202;-75
2021/06/15 08:41:57;;;;;;;14.65;9.95;;;19.70;99.90;;;;;;5083144;28;20214;-76
2021/06/15 08:44:24;;;;;;;14.38;9.45;;;19.70;99.90;;;;;;5083583;28;20252;-75
2021/06/15 08:46:51;;;;;;;16.90;9.73;;;19.50;99.90;;;;;;5082883;28;20194;-76
2021/06/15 08:49:19;;;;;;;12.85;10.18;;;19.50;99.90;;;;;;5082278;28;20198;-75
2021/06/15 08:51:46;;;;;;;12.68;9.70;;;19.80;99.90;;;;;;5088071;28;20602;-76
2021/06/15 08:54:17;;;;;;;18.50;9.95;;;19.60;99.90;;;;;;5089510;28;20225;-76
2021/06/15 08:56:45;;;;;;;16.50;9.23;;;19.80;99.90;;;;;;5078421;28;20212;-75
2021/06/15 08:59:20;;;;;;;15.50;10.52;;;19.70;99.90;;;;;;5080903;28;20198;-75
2021/06/15 09:01:49;;;;;;;16.83;10.82;;;19.40;99.90;;;;;;5086012;28;20545;-76
2021/06/15 09:04:17;;;;;;;13.55;9.93;;;19.40;99.90;;;;;;5076708;28;20206;-75
2021/06/15 09:06:44;;;;;;;13.73;9.30;;;19.70;99.90;;;;;;5085493;28;20230;-76
2021/06/15 09:09:11;;;;;;;13.48;8.85;;;19.80;99.90;;;;;;5085068;28;20721;-75
2021/06/15 09:12:00;;;;;;;15.25;9.65;;;20.00;99.90;;;;;;5077808;28;20268;-75
2021/06/15 09:14:45;;;;;;;17.55;10.57;;;20.00;99.90;;;;;;5083032;28;20232;-76
2021/06/15 09:17:13;;;;;;;18.80;9.95;;;20.00;99.90;;;;;;5077908;28;20198;-76
2021/06/15 09:19:41;;;;;;;16.05;11.38;;;20.30;99.90;;;;;;5085723;28;20213;-75
2021/06/15 09:22:21;;;;;;;14.07;11.77;;;20.50;99.90;;;;;;5089270;28;20198;-75
2021/06/15 09:24:49;;;;;;;16.75;12.27;;;20.60;99.90;;;;;;5080556;28;20205;-76
2021/06/15 09:27:20;;;;;;;14.27;11.18;;;20.80;99.90;;;;;;5085099;28;20228;-75
2021/06/15 09:29:49;;;;;;;18.88;11.55;;;20.70;99.90;;;;;;5087073;28;20562;-76
2021/06/15 09:32:19;;;;;;;15.35;9.82;;;20.70;99.90;;;;;;5090351;28;20707;-76
2021/06/15 09:34:58;;;;;;;13.82;9.60;;;20.50;99.90;;;;;;5084856;28;20608;-75
2021/06/15 09:37:34;;;;;;;12.50;8.43;;;20.60;99.90;;;;;;5076156;28;20238;-76
2021/06/15 09:40:05;;;;;;;13.95;7.05;;;20.60;99.90;;;;;;5080449;28;20260;-76
2021/06/15 09:42:33;;;;;;;6.38;5.10;;;20.70;99.90;;;;;;5081545;28;20648;-76
2021/06/15 09:45:17;;;;;;;10.25;6.32;;;20.40;99.90;;;;;;5077053;28;20664;-76
2021/06/15 09:47:44;;;;;;;8.18;6.50;;;21.10;99.90;;;;;;5089222;28;20250;-76
2021/06/15 09:50:11;;;;;;;8.05;5.90;;;21.00;99.90;;;;;;5079631;28;20206;-75
2021/06/15 09:52:38;;;;;;;8.32;4.93;;;21.20;99.90;;;;;;5083982;28;20197;-76
2021/06/15 09:55:09;;;;;;;7.85;4.43;;;21.10;99.90;;;;;;5087904;28;20217;-75
2021/06/15 09:57:40;;;;;;;5.07;3.80;;;21.10;99.90;;;;;;5086951;28;20201;-76
2021/06/15 10:00:13;;;;;;;9.30;4.28;;;21.10;99.90;;;;;;5085155;28;20216;-75
2021/06/15 10:02:52;;;;;;;6.05;3.30;;;21.00;99.90;;;;;;5085483;28;20197;-70
2021/06/15 10:05:25;;;;;;;8.38;4.22;;;21.10;99.90;;;;;;5081282;28;20194;-70
2021/06/15 10:07:53;;;;;;;7.05;3.72;;;21.00;99.90;;;;;;5086410;28;20210;-71
2021/06/15 10:10:22;;;;;;;6.47;3.40;;;20.80;99.90;;;;;;5084259;28;20582;-76
2021/06/15 10:12:52;;;;;;;9.90;3.50;;;21.00;99.90;;;;;;5083794;28;20193;-76
2021/06/15 10:15:20;;;;;;;8.02;3.50;;;21.30;99.90;;;;;;5081116;28;20221;-75
2021/06/15 10:17:47;;;;;;;8.13;3.60;;;21.50;99.90;;;;;;5075477;28;20842;-76
2021/06/15 10:20:16;;;;;;;10.65;4.10;;;22.00;99.90;;;;;;5070814;28;20260;-76
2021/06/15 10:22:44;;;;;;;6.93;3.70;;;21.90;99.90;;;;;;5083983;28;20244;-76
2021/06/15 10:25:13;;;;;;;9.13;3.95;;;21.60;99.90;;;;;;5080667;28;20243;-75
2021/06/15 10:27:41;;;;;;;5.65;3.53;;;22.40;99.90;;;;;;5080649;28;20603;-76
2021/06/15 10:30:12;;;;;;;6.63;3.30;;;22.50;99.90;;;;;;5080466;28;20255;-76
2021/06/15 10:32:52;;;;;;;5.47;2.97;;;22.40;99.90;;;;;;5074910;28;20263;-76
2021/06/15 10:35:38;;;;;;;10.63;3.55;;;22.10;99.90;;;;;;5072852;28;20230;-75
2021/06/15 10:38:06;;;;;;;6.35;3.10;;;22.40;99.90;;;;;;5077991;28;20210;-75
2021/06/15 10:40:55;;;;;;;6.43;3.08;;;23.20;99.90;;;;;;5080512;28;20284;-76
2021/06/15 10:43:44;;;;;;;7.68;3.80;;;23.10;99.90;;;;;;5075991;28;20228;-75
2021/06/15 10:46:36;;;;;;;3.67;2.58;;;22.90;99.90;;;;;;5066649;28;20571;-75
2021/06/15 10:49:07;;;;;;;4.45;2.60;;;23.30;99.90;;;;;;5079898;28;20290;-76
2021/06/15 10:51:57;;;;;;;5.90;2.67;;;23.70;99.90;;;;;;5074111;28;20928;-75
2021/06/15 10:54:42;;;;;;;7.05;2.67;;;24.30;99.90;;;;;;5080097;28;20206;-76
2021/06/15 10:57:29;;;;;;;6.22;2.83;;;23.20;99.90;;;;;;5073368;28;20201;-76
2021/06/15 11:00:05;;;;;;;6.63;3.67;;;23.90;99.90;;;;;;5091278;28;20213;-75
2021/06/15 11:02:34;;;;;;;7.57;2.80;;;23.90;99.90;;;;;;5075249;28;20196;-76
2021/06/15 11:05:41;;;;;;;5.40;2.72;;;23.60;99.90;;;;;;5078755;28;20207;-76
2021/06/15 11:08:18;;;;;;;5.10;2.60;;;24.20;99.90;;;;;;5077473;28;20296;-76
2021/06/15 11:10:47;;;;;;;5.18;2.20;;;24.20;99.90;;;;;;5083949;28;20204;-76
2021/06/15 11:13:14;;;;;;;6.13;2.55;;;24.30;99.90;;;;;;5083072;28;20202;-75
2021/06/15 11:16:00;;;;;;;3.65;2.28;;;24.60;99.90;;;;;;5083562;28;20249;-75
2021/06/15 11:18:27;;;;;;;4.50;2.50;;;24.80;99.90;;;;;;5082212;28;20729;-76
2021/06/15 11:20:56;;;;;;;2.53;2.08;;;24.40;99.90;;;;;;5072856;28;20687;-76
2021/06/15 11:23:30;;;;;;;5.53;2.90;;;24.50;99.90;;;;;;5079054;28;20277;-75
2021/06/15 11:26:01;;;;;;;10.88;6.32;;;25.00;99.90;;;;;;5082941;28;20193;-75
2021/06/15 11:28:46;;;;;;;5.15;2.50;;;25.30;99.90;;;;;;5082718;28;20205;-75
2021/06/15 11:31:39;;;;;;;4.50;2.20;;;25.40;99.90;;;;;;5080974;28;20210;-75
2021/06/15 11:34:16;;;;;;;4.80;2.70;;;25.30;99.90;;;;;;5080264;28;20201;-74
2021/06/15 11:36:46;;;;;;;8.30;3.00;;;25.00;99.90;;;;;;5079933;28;20282;-76
2021/06/15 11:39:36;;;;;;;11.20;3.22;;;24.60;99.90;;;;;;5081190;28;20206;-75
2021/06/15 11:42:28;;;;;;;4.10;2.22;;;24.40;99.90;;;;;;5088358;28;20630;-75
2021/06/15 11:45:08;;;;;;;4.47;2.28;;;24.40;99.90;;;;;;5082157;28;20252;-76
2021/06/15 11:47:38;;;;;;;4.47;2.25;;;24.60;99.90;;;;;;5085782;28;20205;-76
2021/06/15 11:50:33;;;;;;;3.92;2.55;;;23.70;99.90;;;;;;5083186;28;20205;-75
2021/06/15 11:53:04;;;;;;;3.90;2.45;;;23.40;99.90;;;;;;5086738;28;20205;-76
2021/06/15 11:55:34;;;;;;;4.93;2.35;;;24.50;99.90;;;;;;5086241;28;20278;-75
2021/06/15 11:58:04;;;;;;;6.60;2.53;;;24.90;99.90;;;;;;5086978;28;20205;-75
2021/06/15 12:00:34;;;;;;;6.72;2.17;;;23.90;99.90;;;;;;5084908;28;20780;-75
2021/06/15 12:03:10;;;;;;;6.43;2.70;;;24.60;99.90;;;;;;5083150;28;20244;-75
2021/06/15 12:05:38;;;;;;;3.25;1.80;;;24.90;99.90;;;;;;5081627;28;20548;-75
2021/06/15 12:08:07;;;;;;;3.90;2.15;;;24.70;99.90;;;;;;5084173;28;20252;-75
2021/06/15 12:10:35;;;;;;;3.70;1.90;;;25.50;99.90;;;;;;5080201;28;20593;-75
2021/06/15 12:13:16;;;;;;;3.33;1.80;;;25.30;99.90;;;;;;5077618;28;20194;-75
2021/06/15 12:15:54;;;;;;;4.07;2.53;;;25.50;99.90;;;;;;5087146;28;20214;-75
2021/06/15 12:18:41;;;;;;;2.58;1.60;;;25.80;99.90;;;;;;5080209;28;20612;-75
2021/06/15 12:21:14;;;;;;;7.68;2.20;;;25.80;99.90;;;;;;5087371;28;20535;-75
2021/06/15 12:23:44;;;;;;;3.17;2.03;;;26.00;99.90;;;;;;5075581;28;20198;-76
2021/06/15 12:26:15;;;;;;;4.88;2.08;;;26.30;99.90;;;;;;5081401;28;20717;-75
2021/06/15 12:28:44;;;;;;;5.55;2.10;;;26.00;99.90;;;;;;5084743;28;20205;-76
2021/06/15 12:31:14;;;;;;;3.17;1.73;;;26.00;99.90;;;;;;5078661;28;20718;-75
2021/06/15 12:33:43;;;;;;;4.78;1.98;;;26.20;99.90;;;;;;5083055;28;20205;-75
2021/06/15 12:36:11;;;;;;;4.55;1.80;;;25.90;99.90;;;;;;5083381;28;20225;-76
2021/06/15 12:38:39;;;;;;;4.35;1.98;;;26.30;99.90;;;;;;5081468;28;20251;-76
2021/06/15 12:41:11;;;;;;;6.53;2.40;;;25.90;99.90;;;;;;5070704;28;20209;-75
2021/06/15 12:43:39;;;;;;;5.13;1.80;;;25.50;99.90;;;;;;5080280;28;20214;-75
2021/06/15 12:46:17;;;;;;;5.53;2.53;;;26.10;99.90;;;;;;5073467;28;20202;-75
2021/06/15 12:48:47;;;;;;;5.35;2.33;;;25.50;99.90;;;;;;5072167;28;20213;-75
2021/06/15 12:51:15;;;;;;;3.63;2.05;;;26.00;99.90;;;;;;5076236;28;20737;-76
2021/06/15 12:53:43;;;;;;;5.63;2.20;;;25.90;99.90;;;;;;5074155;28;20233;-75